Time;durP1;ratioP1;P1;durP2;ratioP2;P2;SDS_P1;SDS_P2;PMS_P1;PMS_P2;Temp;Humidity;BMP_temperature;BMP_pressure;BME280_temperature;BME280_humidity;BME280_pressure;Samples;Min_cycle;Max_cycle;Signal;HPM_P1;HPM_P2
2022/10/20 00:01:00;;;;;;;0.70;0.60;;;23.10;58.00;;;;;;5029448;28;20037;-67
2022/10/20 00:03:27;;;;;;;0.80;0.80;;;23.10;59.70;;;;;;5030329;28;20037;-67
2022/10/20 00:05:53;;;;;;;2.08;1.25;;;23.10;59.80;;;;;;5026333;28;20033;-67
2022/10/20 00:08:20;;;;;;;2.65;0.77;;;23.20;59.50;;;;;;5052342;28;20032;-67
2022/10/20 00:10:56;;;;;;;0.60;0.60;;;23.10;59.70;;;;;;5034229;28;20060;-67
2022/10/20 00:13:23;;;;;;;0.73;0.60;;;23.00;59.20;;;;;;5029944;28;20052;-67
2022/10/20 00:15:54;;;;;;;1.48;0.70;;;23.00;59.80;;;;;;5036015;28;20033;-67
2022/10/20 00:18:21;;;;;;;0.88;0.77;;;23.00;56.70;;;;;;5034304;28;20549;-67
2022/10/20 00:20:47;;;;;;;0.60;0.60;;;22.90;55.20;;;;;;5014234;28;20045;-67
2022/10/20 00:23:13;;;;;;;0.60;0.60;;;22.90;59.00;;;;;;5037041;28;20094;-67
2022/10/20 00:25:39;;;;;;;0.65;0.65;;;22.90;58.60;;;;;;5014316;28;20050;-66
2022/10/20 00:28:05;;;;;;;0.50;0.50;;;22.80;56.80;;;;;;5028279;28;20409;-67
2022/10/20 00:30:33;;;;;;;0.52;0.52;;;22.80;59.10;;;;;;5030621;28;20034;-67
2022/10/20 00:33:01;;;;;;;1.40;1.30;;;22.80;59.60;;;;;;5034148;28;20026;-67
2022/10/20 00:35:28;;;;;;;0.52;0.52;;;22.80;59.70;;;;;;5053871;28;20037;-67
2022/10/20 00:37:54;;;;;;;0.45;0.45;;;22.90;59.00;;;;;;5018516;28;20038;-67
2022/10/20 00:40:20;;;;;;;0.47;0.47;;;23.00;59.10;;;;;;5026400;28;20033;-67
2022/10/20 00:42:47;;;;;;;0.40;0.40;;;22.90;59.80;;;;;;5032177;28;20105;-67
2022/10/20 00:45:21;;;;;;;2.67;0.57;;;22.90;59.90;;;;;;5030831;28;20093;-67
2022/10/20 00:47:54;;;;;;;0.50;0.50;;;23.10;58.70;;;;;;5033790;28;20041;-67
2022/10/20 00:50:44;;;;;;;0.75;0.68;;;23.00;59.50;;;;;;5032718;28;20036;-67
2022/10/20 00:53:11;;;;;;;1.55;0.57;;;23.00;58.60;;;;;;5033978;28;20132;-67
2022/10/20 00:55:41;;;;;;;0.63;0.50;;;23.00;58.60;;;;;;5035777;28;20045;-66
2022/10/20 00:58:08;;;;;;;0.57;0.57;;;22.90;59.00;;;;;;5021690;28;20022;-67
2022/10/20 01:00:36;;;;;;;0.43;0.43;;;22.90;57.90;;;;;;5032140;28;20083;-67
2022/10/20 01:03:03;;;;;;;0.60;0.43;;;22.90;59.00;;;;;;5032899;28;20030;-67
2022/10/20 01:05:29;;;;;;;0.30;0.30;;;22.90;60.10;;;;;;5052507;28;20448;-66
2022/10/20 01:07:55;;;;;;;1.35;0.52;;;22.90;59.70;;;;;;5052678;28;20144;-67
2022/10/20 01:10:23;;;;;;;0.47;0.40;;;22.90;60.00;;;;;;5036820;28;20060;-67
2022/10/20 01:12:58;;;;;;;0.52;0.40;;;22.90;59.00;;;;;;5036392;28;20480;-67
2022/10/20 01:15:44;;;;;;;0.50;0.50;;;23.00;60.00;;;;;;5030594;28;20045;-67
2022/10/20 01:18:25;;;;;;;0.60;0.60;;;22.90;60.00;;;;;;5031186;28;20068;-67
2022/10/20 01:21:21;;;;;;;1.70;0.43;;;22.90;59.80;;;;;;5033039;28;20092;-67
2022/10/20 01:24:08;;;;;;;0.50;0.50;;;22.90;58.70;;;;;;5028703;28;20034;-67
2022/10/20 01:26:56;;;;;;;0.47;0.47;;;23.00;59.80;;;;;;5019487;28;20033;-67
2022/10/20 01:29:35;;;;;;;0.63;0.63;;;22.90;58.20;;;;;;5032600;28;20378;-67
2022/10/20 01:32:18;;;;;;;0.35;0.35;;;22.90;60.40;;;;;;5031892;28;20499;-67
2022/10/20 01:35:06;;;;;;;0.35;0.35;;;23.00;59.80;;;;;;5018786;28;20040;-67
2022/10/20 01:38:00;;;;;;;0.30;0.30;;;23.00;60.10;;;;;;5032785;28;20073;-67
2022/10/20 01:40:28;;;;;;;0.57;0.57;;;23.00;59.30;;;;;;5033090;28;20030;-67
2022/10/20 01:42:59;;;;;;;0.70;0.55;;;23.10;59.20;;;;;;5031365;28;20584;-66
2022/10/20 01:45:29;;;;;;;0.45;0.45;;;23.00;60.00;;;;;;5031437;28;20362;-67
2022/10/20 01:47:58;;;;;;;3.05;0.50;;;22.90;59.20;;;;;;5032649;28;20068;-67
2022/10/20 01:50:24;;;;;;;0.55;0.55;;;22.90;59.10;;;;;;5032525;28;20021;-67
2022/10/20 01:52:56;;;;;;;0.57;0.50;;;23.00;60.10;;;;;;5031236;28;20034;-67
2022/10/20 01:55:22;;;;;;;0.95;0.52;;;22.90;59.80;;;;;;5032197;28;20049;-67
2022/10/20 01:58:03;;;;;;;0.20;0.20;;;22.90;59.60;;;;;;5031652;28;20032;-67
2022/10/20 02:00:29;;;;;;;0.57;0.57;;;22.90;60.10;;;;;;5031483;28;20025;-67
2022/10/20 02:03:06;;;;;;;0.57;0.57;;;22.90;60.40;;;;;;5031353;28;20033;-67
2022/10/20 02:05:41;;;;;;;1.17;0.50;;;23.00;59.90;;;;;;5030197;28;20057;-67
2022/10/20 02:08:30;;;;;;;0.90;0.50;;;23.00;60.40;;;;;;5031369;28;20441;-67
2022/10/20 02:11:00;;;;;;;0.73;0.65;;;23.00;59.90;;;;;;5032273;28;20034;-67
2022/10/20 02:13:29;;;;;;;1.08;0.68;;;23.00;59.90;;;;;;5031461;28;20052;-67
2022/10/20 02:15:59;;;;;;;0.50;0.50;;;22.90;60.60;;;;;;5033800;28;20036;-67
2022/10/20 02:18:32;;;;;;;0.47;0.40;;;23.00;59.50;;;;;;5032163;28;20178;-67
2022/10/20 02:21:01;;;;;;;0.43;0.43;;;22.90;60.70;;;;;;5030845;28;20596;-67
2022/10/20 02:23:31;;;;;;;0.85;0.57;;;22.90;60.10;;;;;;5040718;28;20033;-66
2022/10/20 02:25:59;;;;;;;0.30;0.30;;;23.00;60.30;;;;;;5024421;28;20037;-66
2022/10/20 02:28:31;;;;;;;1.08;0.65;;;22.90;60.80;;;;;;5043448;28;20037;-67
2022/10/20 02:30:57;;;;;;;0.75;0.70;;;22.90;59.80;;;;;;5029770;28;20040;-67
2022/10/20 02:33:24;;;;;;;2.90;0.55;;;22.90;60.90;;;;;;5031197;28;20033;-67
2022/10/20 02:35:56;;;;;;;1.38;0.52;;;22.90;60.40;;;;;;5031851;28;20544;-67
2022/10/20 02:38:22;;;;;;;0.50;0.50;;;22.90;60.80;;;;;;5027752;28;20490;-67
2022/10/20 02:40:48;;;;;;;0.55;0.55;;;22.90;60.80;;;;;;5032622;28;20030;-67
2022/10/20 02:43:14;;;;;;;0.40;0.40;;;22.80;60.80;;;;;;5027432;28;20039;-67
2022/10/20 02:45:40;;;;;;;1.15;0.47;;;22.80;60.90;;;;;;5031466;28;20065;-67
2022/10/20 02:48:08;;;;;;;0.40;0.40;;;22.80;60.90;;;;;;5039729;28;20044;-67
2022/10/20 02:50:35;;;;;;;0.40;0.40;;;22.80;60.30;;;;;;5030449;28;20038;-67
2022/10/20 02:53:02;;;;;;;0.40;0.40;;;22.80;61.10;;;;;;4995004;28;20045;-67
2022/10/20 02:55:28;;;;;;;0.80;0.77;;;22.80;61.20;;;;;;5033993;28;20035;-67
2022/10/20 02:57:54;;;;;;;0.40;0.40;;;22.80;61.20;;;;;;5035692;28;20378;-67
2022/10/20 03:00:21;;;;;;;0.93;0.75;;;22.80;57.90;;;;;;5040669;28;20078;-66
2022/10/20 03:02:47;;;;;;;0.40;0.40;;;22.70;60.70;;;;;;5030496;28;20037;-67
2022/10/20 03:05:14;;;;;;;0.63;0.60;;;22.60;61.60;;;;;;5029015;28;20509;-67
2022/10/20 03:07:40;;;;;;;0.50;0.50;;;22.70;61.00;;;;;;4995957;28;20421;-67
2022/10/20 03:10:06;;;;;;;2.25;0.50;;;22.70;61.50;;;;;;5030643;28;20030;-67
2022/10/20 03:12:32;;;;;;;1.25;0.70;;;22.80;59.50;;;;;;5030418;28;20036;-67
2022/10/20 03:14:58;;;;;;;0.57;0.50;;;22.60;60.40;;;;;;5036189;28;20045;-66
2022/10/20 03:17:24;;;;;;;0.40;0.40;;;22.70;59.50;;;;;;5032013;28;20033;-67
2022/10/20 03:19:50;;;;;;;2.38;0.50;;;22.50;61.00;;;;;;5030072;28;20056;-67
2022/10/20 03:22:16;;;;;;;0.50;0.50;;;22.70;61.40;;;;;;5028792;28;20068;-67
2022/10/20 03:24:42;;;;;;;0.90;0.57;;;22.50;58.40;;;;;;5013200;28;20034;-67
2022/10/20 03:27:08;;;;;;;0.40;0.40;;;22.40;57.90;;;;;;5012094;28;20073;-66
2022/10/20 03:29:34;;;;;;;0.47;0.47;;;22.50;61.00;;;;;;5032872;28;20099;-67
2022/10/20 03:31:59;;;;;;;0.70;0.40;;;22.50;61.70;;;;;;5033201;28;20040;-67
2022/10/20 03:34:25;;;;;;;1.05;0.45;;;22.60;60.00;;;;;;5042168;28;20036;-67
2022/10/20 03:36:52;;;;;;;1.50;0.32;;;22.50;61.50;;;;;;5009837;28;20029;-67
2022/10/20 03:39:18;;;;;;;2.92;0.60;;;22.50;59.90;;;;;;5026833;28;20025;-67
2022/10/20 03:41:44;;;;;;;0.63;0.50;;;22.60;61.20;;;;;;5030572;28;20065;-67
2022/10/20 03:44:10;;;;;;;0.47;0.47;;;22.50;61.10;;;;;;5032047;28;20505;-67
2022/10/20 03:46:36;;;;;;;0.30;0.30;;;22.70;60.10;;;;;;5032857;28;20069;-67
2022/10/20 03:49:02;;;;;;;2.05;0.60;;;22.60;60.30;;;;;;5034106;28;20057;-66
2022/10/20 03:51:28;;;;;;;1.45;0.70;;;22.50;59.50;;;;;;5034242;28;20490;-68
2022/10/20 03:53:54;;;;;;;2.38;0.50;;;22.60;59.20;;;;;;5032510;28;20028;-67
2022/10/20 03:56:20;;;;;;;0.68;0.68;;;22.50;59.20;;;;;;5034277;28;20037;-67
2022/10/20 03:58:47;;;;;;;1.20;0.60;;;22.60;58.90;;;;;;5030329;28;20063;-68
2022/10/20 04:01:18;;;;;;;1.92;0.40;;;22.60;61.30;;;;;;5032008;28;20021;-67
2022/10/20 04:03:44;;;;;;;0.68;0.50;;;22.40;58.50;;;;;;5028404;28;20045;-67
2022/10/20 04:06:14;;;;;;;2.25;0.70;;;22.50;59.10;;;;;;5051934;28;20091;-67
2022/10/20 04:08:40;;;;;;;0.80;0.80;;;22.40;60.00;;;;;;5053490;28;20385;-67
2022/10/20 04:11:06;;;;;;;1.25;0.80;;;22.40;59.00;;;;;;5052130;28;20037;-67
2022/10/20 04:13:32;;;;;;;1.10;0.73;;;22.50;58.50;;;;;;5035981;28;20028;-66
2022/10/20 04:15:58;;;;;;;1.20;0.82;;;22.40;61.40;;;;;;5033328;28;20116;-67
2022/10/20 04:18:24;;;;;;;0.73;0.70;;;22.40;59.10;;;;;;5034399;28;20049;-67
2022/10/20 04:20:50;;;;;;;0.70;0.70;;;22.50;60.60;;;;;;5034215;28;20028;-67
2022/10/20 04:23:16;;;;;;;1.80;0.60;;;22.40;60.50;;;;;;5036927;28;20441;-67
2022/10/20 04:25:46;;;;;;;0.47;0.40;;;22.40;61.40;;;;;;5053894;28;20080;-67
2022/10/20 04:28:16;;;;;;;0.75;0.60;;;22.50;61.50;;;;;;4998378;28;20136;-67
2022/10/20 04:30:43;;;;;;;0.93;0.47;;;22.40;61.50;;;;;;4958369;28;20523;-67
2022/10/20 04:33:09;;;;;;;1.38;0.57;;;22.40;61.00;;;;;;4975360;28;20129;-67
2022/10/20 04:35:35;;;;;;;1.05;0.50;;;22.40;61.60;;;;;;4990892;28;20132;-67
2022/10/20 04:38:01;;;;;;;1.85;0.90;;;22.30;61.70;;;;;;4989853;28;20129;-67
2022/10/20 04:40:27;;;;;;;1.38;0.75;;;22.30;61.80;;;;;;4994306;28;20038;-67
2022/10/20 04:42:53;;;;;;;0.98;0.55;;;22.40;55.80;;;;;;4996177;28;20045;-67
2022/10/20 04:45:19;;;;;;;2.55;0.63;;;22.50;52.30;;;;;;4995902;28;20064;-67
2022/10/20 04:47:45;;;;;;;1.73;0.98;;;22.50;52.90;;;;;;4990214;28;20050;-68
2022/10/20 04:50:11;;;;;;;4.93;1.08;;;22.50;50.30;;;;;;4989390;28;20030;-67
2022/10/20 04:52:37;;;;;;;0.95;0.50;;;22.60;48.80;;;;;;4989760;28;20097;-64
2022/10/20 04:55:03;;;;;;;1.08;0.73;;;22.60;53.80;;;;;;4989799;28;20027;-66
2022/10/20 04:57:29;;;;;;;1.17;1.08;;;22.80;50.20;;;;;;4989076;28;20598;-66
2022/10/20 04:59:55;;;;;;;1.17;1.08;;;22.90;48.30;;;;;;5029831;28;20045;-65
2022/10/20 05:02:21;;;;;;;2.40;2.20;;;22.70;52.80;;;;;;5030633;28;20048;-66
2022/10/20 05:04:47;;;;;;;1.13;0.50;;;23.00;52.70;;;;;;5032124;28;20030;-66
2022/10/20 05:07:13;;;;;;;2.05;0.90;;;23.00;61.90;;;;;;5028012;28;20133;-65
2022/10/20 05:09:39;;;;;;;1.15;0.80;;;23.10;62.30;;;;;;5031017;28;20041;-65
2022/10/20 05:12:05;;;;;;;0.60;0.50;;;23.00;59.30;;;;;;5043918;28;20047;-65
2022/10/20 05:14:31;;;;;;;1.40;0.70;;;23.10;61.70;;;;;;5032113;28;20203;-66
2022/10/20 05:16:57;;;;;;;1.65;0.80;;;23.00;60.00;;;;;;5032205;28;20037;-64
2022/10/20 05:19:23;;;;;;;1.13;1.02;;;23.00;59.70;;;;;;5009880;28;20387;-64
2022/10/20 05:21:49;;;;;;;1.58;0.73;;;23.00;63.80;;;;;;5019097;28;20434;-65
2022/10/20 05:24:16;;;;;;;2.47;1.08;;;23.10;66.40;;;;;;5005521;28;20042;-66
2022/10/20 05:26:43;;;;;;;1.05;0.70;;;23.10;67.00;;;;;;5008738;28;20101;-64
2022/10/20 05:29:10;;;;;;;0.40;0.40;;;23.10;62.90;;;;;;5013038;28;20507;-64
2022/10/20 05:31:38;;;;;;;0.85;0.60;;;23.10;62.00;;;;;;5008984;28;20042;-65
2022/10/20 05:34:04;;;;;;;1.63;0.68;;;23.20;61.00;;;;;;5014729;28;20048;-65
2022/10/20 05:36:30;;;;;;;1.05;0.52;;;23.10;61.20;;;;;;5009517;28;20038;-64
2022/10/20 05:38:56;;;;;;;1.20;0.85;;;23.10;60.70;;;;;;5018332;28;20046;-65
2022/10/20 05:41:32;;;;;;;1.73;1.08;;;23.10;61.60;;;;;;5013311;28;20053;-64
2022/10/20 05:44:00;;;;;;;0.85;0.73;;;23.10;58.70;;;;;;4965021;28;20181;-65
2022/10/20 05:46:30;;;;;;;1.08;0.95;;;23.10;58.50;;;;;;5008466;28;20588;-64
2022/10/20 05:48:58;;;;;;;2.03;1.08;;;23.20;60.10;;;;;;5022024;28;20041;-65
2022/10/20 05:51:30;;;;;;;2.55;0.75;;;23.10;59.70;;;;;;5038397;28;20539;-65
2022/10/20 05:53:57;;;;;;;2.30;0.77;;;23.10;58.30;;;;;;5026826;28;20108;-66
2022/10/20 05:56:25;;;;;;;1.10;0.80;;;23.00;59.80;;;;;;5012552;28;20033;-65
2022/10/20 05:58:51;;;;;;;1.77;1.38;;;23.10;57.50;;;;;;5031585;28;20156;-64
2022/10/20 06:01:22;;;;;;;1.40;0.55;;;23.00;59.00;;;;;;5033044;28;20119;-59
2022/10/20 06:03:53;;;;;;;7.35;0.70;;;23.00;58.60;;;;;;5026651;28;20129;-65
2022/10/20 06:06:22;;;;;;;0.68;0.60;;;23.10;59.80;;;;;;5047813;28;20060;-65
2022/10/20 06:08:49;;;;;;;1.13;0.90;;;23.00;60.10;;;;;;5049080;28;20106;-65
2022/10/20 06:11:17;;;;;;;0.85;0.82;;;23.10;59.70;;;;;;5043645;28;20039;-65
2022/10/20 06:13:43;;;;;;;1.20;0.68;;;23.00;56.00;;;;;;5049746;28;20044;-64
2022/10/20 06:16:11;;;;;;;0.75;0.60;;;23.00;60.60;;;;;;5035229;28;20037;-66
2022/10/20 06:18:38;;;;;;;0.85;0.85;;;23.00;55.60;;;;;;5031224;28;20035;-65
2022/10/20 06:21:06;;;;;;;1.95;1.02;;;22.80;60.60;;;;;;5024818;28;20207;-65
2022/10/20 06:23:32;;;;;;;0.40;0.40;;;22.80;56.20;;;;;;5049138;28;20410;-65
2022/10/20 06:26:10;;;;;;;1.15;0.50;;;22.70;59.90;;;;;;5023312;28;20042;-66
2022/10/20 06:28:38;;;;;;;0.70;0.70;;;22.70;57.80;;;;;;5049383;28;20048;-62
2022/10/20 06:31:14;;;;;;;0.80;0.57;;;22.70;57.00;;;;;;5029300;28;20045;-64
2022/10/20 06:33:40;;;;;;;0.70;0.60;;;22.70;54.70;;;;;;5001804;28;20124;-63
2022/10/20 06:36:07;;;;;;;3.45;0.68;;;22.60;54.50;;;;;;5026744;28;20441;-64
2022/10/20 06:38:33;;;;;;;1.38;0.70;;;22.60;55.70;;;;;;5029303;28;20037;-67
2022/10/20 06:41:01;;;;;;;1.15;0.45;;;22.50;54.10;;;;;;5029585;28;20033;-65
2022/10/20 06:43:27;;;;;;;1.25;1.10;;;22.60;56.00;;;;;;5041482;28;20021;-65
2022/10/20 06:45:56;;;;;;;9.98;3.00;;;22.60;54.00;;;;;;5025983;28;20037;-66
2022/10/20 06:48:23;;;;;;;8.02;2.10;;;23.00;57.70;;;;;;5029104;28;20030;-68
2022/10/20 06:50:49;;;;;;;0.47;0.47;;;23.30;55.80;;;;;;5030043;28;20033;-67
2022/10/20 06:53:15;;;;;;;0.50;0.50;;;23.20;53.70;;;;;;5034426;28;20037;-66
2022/10/20 06:55:41;;;;;;;1.42;0.77;;;23.20;52.10;;;;;;5031369;28;20073;-66
2022/10/20 06:58:07;;;;;;;1.25;0.88;;;23.30;52.40;;;;;;5039355;28;20055;-66
2022/10/20 07:00:33;;;;;;;1.20;0.88;;;23.30;49.90;;;;;;5045625;28;20044;-67
2022/10/20 07:02:59;;;;;;;0.82;0.65;;;23.30;50.90;;;;;;5026307;28;20033;-65
2022/10/20 07:05:25;;;;;;;0.52;0.50;;;23.40;50.20;;;;;;5028818;28;20109;-66
2022/10/20 07:07:52;;;;;;;0.88;0.77;;;23.40;49.10;;;;;;5027922;28;20124;-64
2022/10/20 07:10:18;;;;;;;7.70;1.02;;;23.40;48.10;;;;;;5033367;28;20029;-66
2022/10/20 07:12:44;;;;;;;1.20;1.00;;;23.40;42.40;;;;;;5007790;28;20108;-65
2022/10/20 07:15:10;;;;;;;4.35;0.98;;;23.20;41.90;;;;;;5020200;28;20034;-66
2022/10/20 07:17:36;;;;;;;0.95;0.65;;;23.10;41.40;;;;;;5030342;28;20485;-66
2022/10/20 07:20:02;;;;;;;1.70;0.80;;;22.90;43.60;;;;;;5039118;28;20041;-66
2022/10/20 07:22:28;;;;;;;1.40;1.00;;;22.90;44.20;;;;;;5038275;28;20055;-65
2022/10/20 07:24:54;;;;;;;3.05;1.63;;;22.90;43.70;;;;;;5031290;28;20411;-64
2022/10/20 07:27:20;;;;;;;0.60;0.60;;;22.80;39.00;;;;;;5027403;28;20091;-62
2022/10/20 07:29:46;;;;;;;0.85;0.68;;;22.70;44.40;;;;;;5028714;28;20441;-66
2022/10/20 07:32:12;;;;;;;1.20;1.05;;;22.70;44.90;;;;;;5031437;28;20078;-63
2022/10/20 07:34:38;;;;;;;1.95;0.70;;;22.80;41.80;;;;;;5034661;28;20087;-64
2022/10/20 07:37:04;;;;;;;0.20;0.20;;;22.70;45.30;;;;;;5023612;28;20128;-68
2022/10/20 07:39:30;;;;;;;1.02;0.70;;;22.80;48.90;;;;;;5028696;28;20108;-65
2022/10/20 07:41:56;;;;;;;1.00;0.80;;;22.80;49.00;;;;;;5010186;28;20117;-66
2022/10/20 07:44:22;;;;;;;1.90;1.02;;;22.90;46.30;;;;;;5033671;28;20056;-67
2022/10/20 07:46:48;;;;;;;0.95;0.90;;;22.80;47.40;;;;;;5023997;28;20037;-64
2022/10/20 07:49:15;;;;;;;7.20;1.00;;;22.80;45.90;;;;;;5025775;28;20038;-67
2022/10/20 07:51:41;;;;;;;1.08;0.90;;;22.70;47.20;;;;;;5005296;28;20041;-67
2022/10/20 07:54:08;;;;;;;1.60;1.10;;;22.50;47.30;;;;;;5025136;28;20026;-67
2022/10/20 07:56:39;;;;;;;1.33;1.23;;;22.50;48.90;;;;;;5025050;28;20029;-68
2022/10/20 07:59:06;;;;;;;0.60;0.60;;;22.60;49.20;;;;;;5029761;28;20033;-68
2022/10/20 08:01:32;;;;;;;2.17;0.88;;;22.60;51.20;;;;;;5024186;28;20136;-68
2022/10/20 08:03:58;;;;;;;0.80;0.80;;;22.80;51.10;;;;;;5026363;28;20044;-68
2022/10/20 08:06:25;;;;;;;4.50;0.77;;;22.80;51.50;;;;;;5020223;28;20046;-68
2022/10/20 08:08:51;;;;;;;1.13;0.93;;;22.80;49.90;;;;;;5026899;28;20041;-69
2022/10/20 08:11:17;;;;;;;4.97;0.90;;;22.90;45.50;;;;;;5023107;28;20121;-68
2022/10/20 08:13:43;;;;;;;0.77;0.73;;;22.80;49.80;;;;;;5026164;28;20064;-68
2022/10/20 08:16:11;;;;;;;1.98;1.08;;;22.80;50.60;;;;;;5026482;28;20513;-68
2022/10/20 08:18:37;;;;;;;0.77;0.77;;;22.80;47.10;;;;;;5026304;28;20424;-69
2022/10/20 08:21:31;;;;;;;2.15;0.70;;;22.70;50.80;;;;;;5029114;28;20032;-68
2022/10/20 08:23:57;;;;;;;;;;;22.80;50.80;;;;;;4967419;28;20058;-67
2022/10/20 08:26:25;;;;;;;1.15;0.98;;;22.80;50.40;;;;;;4964849;28;19956;-66
2022/10/20 08:28:52;;;;;;;0.50;0.50;;;22.70;52.70;;;;;;4971859;28;20525;-66
2022/10/20 08:31:19;;;;;;;1.10;0.98;;;22.50;49.60;;;;;;4991559;28;20030;-67
2022/10/20 08:33:45;;;;;;;1.02;0.93;;;22.60;50.70;;;;;;4991786;28;20053;-66
2022/10/20 08:36:13;;;;;;;2.55;0.82;;;22.60;50.40;;;;;;4991899;28;20070;-66
2022/10/20 08:38:41;;;;;;;0.30;0.30;;;22.70;48.00;;;;;;4968859;28;20039;-68
2022/10/20 08:41:25;;;;;;;2.63;0.75;;;22.70;52.80;;;;;;4979257;28;20050;-67
2022/10/20 08:43:53;;;;;;;2.60;1.33;;;22.80;53.90;;;;;;4990532;28;20475;-67
2022/10/20 08:46:26;;;;;;;1.77;0.77;;;22.80;48.40;;;;;;4969843;28;20047;-67
2022/10/20 08:48:52;;;;;;;0.93;0.93;;;22.80;49.60;;;;;;4971164;28;20042;-66
2022/10/20 08:51:24;;;;;;;0.70;0.70;;;22.80;51.50;;;;;;4963230;28;20473;-66
2022/10/20 08:53:54;;;;;;;1.27;1.00;;;22.80;51.60;;;;;;4971102;28;20043;-66
2022/10/20 08:56:24;;;;;;;2.97;1.27;;;22.90;51.50;;;;;;4977215;28;20034;-66
2022/10/20 08:58:51;;;;;;;5.82;1.38;;;23.00;46.30;;;;;;4975351;28;20046;-66
2022/10/20 09:01:24;;;;;;;2.83;1.23;;;23.00;46.10;;;;;;5012649;28;20049;-65
2022/10/20 09:04:26;;;;;;;3.95;1.17;;;23.00;44.30;;;;;;5028260;28;20037;-66
2022/10/20 09:07:00;;;;;;;2.13;0.63;;;23.00;41.10;;;;;;4955371;28;20190;-65
2022/10/20 09:09:29;;;;;;;1.67;0.80;;;23.10;42.30;;;;;;4936944;28;20162;-66
2022/10/20 09:12:03;;;;;;;1.92;1.38;;;23.10;40.00;;;;;;4953518;28;20058;-65
2022/10/20 09:14:33;;;;;;;0.90;0.65;;;23.10;41.50;;;;;;4935241;28;20072;-65
2022/10/20 09:17:00;;;;;;;4.45;1.23;;;23.10;40.80;;;;;;4950080;28;20050;-64
2022/10/20 09:19:27;;;;;;;2.50;1.08;;;23.10;40.80;;;;;;4955820;28;20033;-65
2022/10/20 09:22:01;;;;;;;3.10;0.90;;;23.10;42.00;;;;;;4934286;29;20047;-64
2022/10/20 09:24:29;;;;;;;6.07;1.15;;;23.00;40.80;;;;;;4954357;28;20043;-66
2022/10/20 09:26:56;;;;;;;1.40;0.90;;;23.00;40.10;;;;;;4959476;28;20122;-66
2022/10/20 09:29:34;;;;;;;0.80;0.70;;;23.10;39.10;;;;;;4957738;28;20050;-67
2022/10/20 09:32:00;;;;;;;2.58;0.80;;;23.10;40.70;;;;;;4924081;29;20039;-66
2022/10/20 09:34:28;;;;;;;1.02;0.77;;;23.20;40.80;;;;;;4950805;28;20024;-66
2022/10/20 09:37:08;;;;;;;3.50;0.98;;;23.20;41.60;;;;;;4950138;28;20137;-66
2022/10/20 09:39:44;;;;;;;1.27;0.70;;;23.20;40.80;;;;;;4950041;28;20500;-65
2022/10/20 09:42:14;;;;;;;0.73;0.73;;;23.10;39.00;;;;;;4954761;28;20475;-66
2022/10/20 09:45:15;;;;;;;1.17;0.80;;;23.10;41.50;;;;;;5012938;28;20475;-67
2022/10/20 09:47:44;;;;;;;2.65;0.88;;;23.20;40.10;;;;;;5005897;28;20056;-65
2022/10/20 09:50:18;;;;;;;1.98;0.80;;;23.20;41.70;;;;;;5023961;28;20028;-66
2022/10/20 09:52:47;;;;;;;1.42;1.10;;;23.20;41.30;;;;;;5030289;28;20033;-67
2022/10/20 09:55:27;;;;;;;0.98;0.68;;;23.10;40.40;;;;;;5032010;28;20037;-67
2022/10/20 09:57:55;;;;;;;0.60;0.60;;;23.10;41.20;;;;;;5036643;28;20446;-66
2022/10/20 10:00:22;;;;;;;1.02;0.90;;;23.10;45.30;;;;;;5035037;28;20125;-66
2022/10/20 10:03:06;;;;;;;0.73;0.70;;;23.10;49.70;;;;;;5030384;28;20041;-66
2022/10/20 10:05:32;;;;;;;2.28;1.02;;;23.20;50.70;;;;;;5028920;28;20026;-65
2022/10/20 10:07:59;;;;;;;1.80;0.95;;;23.00;51.20;;;;;;5029584;28;20050;-66
2022/10/20 10:10:30;;;;;;;1.80;0.95;;;23.00;52.00;;;;;;5029996;28;20025;-66
2022/10/20 10:13:03;;;;;;;1.33;1.05;;;23.10;50.30;;;;;;5002366;28;20041;-66
2022/10/20 10:15:36;;;;;;;2.60;0.90;;;22.90;52.50;;;;;;5026179;28;20091;-67
2022/10/20 10:18:13;;;;;;;1.10;1.00;;;22.90;52.30;;;;;;5012029;28;20026;-67
2022/10/20 10:20:40;;;;;;;0.93;0.82;;;23.10;56.60;;;;;;5028067;28;20033;-69
2022/10/20 10:23:19;;;;;;;1.02;0.80;;;23.20;54.00;;;;;;5029105;28;20030;-67
2022/10/20 10:25:47;;;;;;;1.45;0.90;;;23.40;54.60;;;;;;5037108;28;20371;-65
2022/10/20 10:28:37;;;;;;;4.05;1.35;;;23.40;64.20;;;;;;5028322;28;20389;-65
2022/10/20 10:31:09;;;;;;;2.17;0.95;;;23.30;66.70;;;;;;5029562;28;20136;-65
2022/10/20 10:33:34;;;;;;;1.00;0.88;;;23.40;73.10;;;;;;5030755;28;20037;-68
2022/10/20 10:36:05;;;;;;;1.20;0.88;;;23.40;73.50;;;;;;5029372;28;20121;-64
2022/10/20 10:38:31;;;;;;;4.35;1.23;;;23.70;60.80;;;;;;5029782;28;20030;-67
2022/10/20 10:41:23;;;;;;;1.95;1.13;;;23.70;53.00;;;;;;5025233;28;20037;-65
2022/10/20 10:44:19;;;;;;;3.15;1.02;;;23.90;56.20;;;;;;5019909;28;20041;-65
2022/10/20 10:47:30;;;;;;;1.00;0.82;;;24.00;45.80;;;;;;5028260;28;20447;-65
2022/10/20 10:50:43;;;;;;;0.80;0.77;;;24.10;46.40;;;;;;5005271;28;20122;-63
2022/10/20 10:53:32;;;;;;;3.88;1.02;;;24.20;45.80;;;;;;4950208;28;20129;-64
2022/10/20 10:56:16;;;;;;;3.60;0.75;;;24.20;44.10;;;;;;4943102;28;20038;-64
2022/10/20 10:59:11;;;;;;;2.75;1.65;;;24.20;40.60;;;;;;4957152;28;20106;-64
2022/10/20 11:02:09;;;;;;;1.65;0.65;;;24.20;53.50;;;;;;4962253;28;20035;-65
2022/10/20 11:04:44;;;;;;;0.80;0.80;;;24.20;52.00;;;;;;4949307;28;20073;-66
2022/10/20 11:07:47;;;;;;;1.08;0.85;;;24.10;51.50;;;;;;4962173;28;20113;-65
2022/10/20 11:10:19;;;;;;;0.63;0.63;;;24.20;49.20;;;;;;4942154;28;20058;-65
2022/10/20 11:13:01;;;;;;;1.77;0.90;;;24.10;49.70;;;;;;4950088;28;20042;-65
2022/10/20 11:15:55;;;;;;;0.80;0.77;;;24.00;45.00;;;;;;4918320;29;20042;-65
2022/10/20 11:18:48;;;;;;;2.55;0.75;;;23.90;52.40;;;;;;4949746;28;20420;-66
2022/10/20 11:21:51;;;;;;;0.60;0.55;;;23.90;51.70;;;;;;4971165;28;20049;-66
2022/10/20 11:24:46;;;;;;;1.85;0.80;;;23.80;53.60;;;;;;4979107;28;20038;-64
2022/10/20 11:27:17;;;;;;;1.63;0.85;;;23.90;56.70;;;;;;4971638;28;20166;-65
2022/10/20 11:29:54;;;;;;;1.25;0.40;;;24.00;52.40;;;;;;5006658;28;20099;-66
2022/10/20 11:32:30;;;;;;;0.47;0.45;;;24.00;54.20;;;;;;5024802;28;20116;-66
2022/10/20 11:35:12;;;;;;;0.50;0.50;;;23.90;52.70;;;;;;5017887;28;20151;-66
2022/10/20 11:37:50;;;;;;;0.80;0.40;;;24.00;56.80;;;;;;5010825;28;20037;-65
2022/10/20 11:40:23;;;;;;;1.65;0.90;;;24.00;56.60;;;;;;5007695;28;20116;-64
2022/10/20 11:43:07;;;;;;;1.20;0.90;;;23.80;52.90;;;;;;5007849;28;20049;-64
2022/10/20 11:45:50;;;;;;;0.47;0.40;;;23.90;47.20;;;;;;5026854;28;20037;-66
2022/10/20 11:48:25;;;;;;;0.85;0.65;;;23.80;53.90;;;;;;5027197;28;20864;-66
2022/10/20 11:51:23;;;;;;;1.75;0.85;;;23.90;47.60;;;;;;4988042;28;20044;-65
2022/10/20 11:54:19;;;;;;;0.75;0.75;;;23.80;53.70;;;;;;5023961;28;20133;-65
2022/10/20 11:57:15;;;;;;;2.03;0.63;;;23.80;52.70;;;;;;5005274;28;20081;-66
2022/10/20 11:59:58;;;;;;;0.70;0.70;;;23.80;53.90;;;;;;4912113;29;20043;-66
2022/10/20 12:02:43;;;;;;;;;;;24.00;51.20;;;;;;4912245;29;20087;-66
2022/10/20 12:05:11;;;;;;;0.80;0.70;;;23.80;51.50;;;;;;4931759;29;20013;-66
2022/10/20 12:07:56;;;;;;;0.63;0.63;;;23.80;54.10;;;;;;4931573;29;20044;-66
2022/10/20 12:10:40;;;;;;;0.82;0.60;;;23.80;53.90;;;;;;4947981;28;20377;-65
2022/10/20 12:13:17;;;;;;;3.15;1.10;;;24.00;52.70;;;;;;4953433;28;20047;-65
2022/10/20 12:15:46;;;;;;;1.05;0.70;;;23.80;52.10;;;;;;4953229;28;20097;-65
2022/10/20 12:18:27;;;;;;;0.15;0.15;;;23.80;53.20;;;;;;4953430;28;20043;-66
2022/10/20 12:20:55;;;;;;;0.30;0.30;;;23.80;55.50;;;;;;4953094;29;20471;-65
2022/10/20 12:24:01;;;;;;;5.07;0.88;;;23.80;53.00;;;;;;4923633;28;20050;-66
2022/10/20 12:26:31;;;;;;;1.42;0.70;;;23.70;54.10;;;;;;4865020;29;20810;-65
2022/10/20 12:28:59;;;;;;;1.10;0.40;;;23.60;52.40;;;;;;4874071;29;20081;-66
2022/10/20 12:32:03;;;;;;;0.47;0.47;;;23.60;54.00;;;;;;4877454;29;20041;-66
2022/10/20 12:34:40;;;;;;;0.70;0.60;;;23.60;53.00;;;;;;4877495;29;20045;-65
2022/10/20 12:37:08;;;;;;;2.35;1.20;;;23.70;52.50;;;;;;4934469;28;20075;-65
2022/10/20 12:39:35;;;;;;;1.98;0.68;;;23.70;55.30;;;;;;4956096;28;20854;-66
2022/10/20 12:42:04;;;;;;;2.17;0.43;;;23.70;53.10;;;;;;4970481;28;20125;-65
2022/10/20 12:44:38;;;;;;;0.38;0.38;;;23.60;54.10;;;;;;4946076;28;20492;-66
2022/10/20 12:47:07;;;;;;;3.63;0.90;;;23.80;52.70;;;;;;4951642;29;20106;-65
2022/10/20 12:49:37;;;;;;;0.65;0.65;;;23.70;54.60;;;;;;4952281;29;20054;-65
2022/10/20 12:52:06;;;;;;;1.00;0.70;;;23.80;52.80;;;;;;4951180;29;20066;-66
2022/10/20 12:54:39;;;;;;;2.25;0.95;;;23.60;55.20;;;;;;4971729;28;20125;-65
2022/10/20 12:57:29;;;;;;;1.40;0.77;;;23.60;55.00;;;;;;4972173;28;20046;-66
2022/10/20 12:59:55;;;;;;;2.45;1.23;;;23.70;54.20;;;;;;4875719;29;20081;-65
2022/10/20 13:02:21;;;;;;;3.22;0.73;;;23.70;51.60;;;;;;4909830;28;20134;-64
2022/10/20 13:04:56;;;;;;;6.38;0.68;;;23.60;54.30;;;;;;4968886;28;20173;-65
2022/10/20 13:07:47;;;;;;;0.70;0.70;;;23.60;53.50;;;;;;4968909;28;20050;-66
2022/10/20 13:10:37;;;;;;;1.98;0.50;;;23.60;54.80;;;;;;4982778;28;20038;-65